createdAt,value
2019-03-05T00:00:35.194Z,987.89
2019-03-05T00:01:35.190Z,987.94
2019-03-05T00:02:35.178Z,987.99
2019-03-05T00:03:35.167Z,987.94
2019-03-05T00:04:35.198Z,988.02
2019-03-05T00:05:35.141Z,987.96
2019-03-05T00:06:35.142Z,987.97
2019-03-05T00:07:35.116Z,987.95
2019-03-05T00:08:35.110Z,987.94
2019-03-05T00:09:35.105Z,988.01
2019-03-05T00:10:35.120Z,988.04
2019-03-05T00:11:35.076Z,988.02
2019-03-05T00:12:37.916Z,987.98
2019-03-05T00:14:34.044Z,988.02
2019-03-05T00:15:35.036Z,988.08
2019-03-05T00:16:35.969Z,988.10
2019-03-05T00:17:35.008Z,988.08
2019-03-05T00:18:35.001Z,988.06
2019-03-05T00:19:35.020Z,988.07
2019-03-05T00:20:34.984Z,988.14
2019-03-05T00:21:34.973Z,988.02
2019-03-05T00:22:34.963Z,988.07
2019-03-05T00:23:34.950Z,988.15
2019-03-05T00:24:35.456Z,988.10
2019-03-05T00:25:34.932Z,988.00
2019-03-05T00:26:34.914Z,988.08
2019-03-05T00:27:34.906Z,988.06
2019-03-05T00:28:34.905Z,988.10
2019-03-05T00:29:34.905Z,988.08
2019-03-05T00:30:34.872Z,988.02
2019-03-05T00:31:34.866Z,988.05
2019-03-05T00:32:34.854Z,988.04
2019-03-05T00:33:34.846Z,988.04
2019-03-05T00:34:34.880Z,987.96
2019-03-05T00:35:34.817Z,987.92
2019-03-05T00:36:34.812Z,988.07
2019-03-05T00:37:34.800Z,988.04
2019-03-05T00:38:34.788Z,987.99
2019-03-05T00:39:35.412Z,987.96
2019-03-05T00:40:34.818Z,987.95
2019-03-05T00:41:34.756Z,988.04
2019-03-05T00:42:34.744Z,988.05
2019-03-05T00:43:37.408Z,988.02
2019-03-05T00:44:34.726Z,988.02
2019-03-05T00:45:34.714Z,988.00
2019-03-05T00:46:34.818Z,988.02
2019-03-05T00:47:34.690Z,987.98
2019-03-05T00:48:34.677Z,988.23
2019-03-05T00:49:37.398Z,988.00
2019-03-05T00:50:34.654Z,988.06
2019-03-05T00:51:35.401Z,988.00
2019-03-05T00:52:34.666Z,988.05
2019-03-05T00:53:34.624Z,988.07
2019-03-05T00:54:34.627Z,988.01
2019-03-05T00:55:34.600Z,988.03
2019-03-05T00:56:34.592Z,988.14
2019-03-05T00:57:34.582Z,988.08
2019-03-05T00:58:34.597Z,988.09
2019-03-05T00:59:34.617Z,988.01
2019-03-05T01:00:34.546Z,988.11
2019-03-05T01:01:34.540Z,988.10
2019-03-05T01:02:34.521Z,988.07
2019-03-05T01:03:34.548Z,988.07
2019-03-05T01:04:34.538Z,988.11
2019-03-05T01:05:34.522Z,988.13
2019-03-05T01:06:34.483Z,988.14
2019-03-05T01:07:34.476Z,988.22
2019-03-05T01:08:34.464Z,988.22
2019-03-05T01:09:34.451Z,988.24
2019-03-05T01:10:34.440Z,988.24
2019-03-05T01:11:34.458Z,988.22
2019-03-05T01:12:34.415Z,988.30
2019-03-05T01:13:34.410Z,988.35
2019-03-05T01:14:34.396Z,988.30
2019-03-05T01:15:34.392Z,988.31
2019-03-05T01:17:33.368Z,988.26
2019-03-05T01:18:34.352Z,988.22
2019-03-05T01:19:34.906Z,988.28
2019-03-05T01:20:37.389Z,988.27
2019-03-05T01:21:34.353Z,988.25
2019-03-05T01:22:34.309Z,988.34
2019-03-05T01:23:34.297Z,988.27
2019-03-05T01:24:34.285Z,988.26
2019-03-05T01:25:34.278Z,988.27
2019-03-05T01:26:34.300Z,988.31
2019-03-05T01:27:34.256Z,988.31
2019-03-05T01:28:34.245Z,988.22
2019-03-05T01:29:36.889Z,988.31
2019-03-05T01:30:34.228Z,988.20
2019-03-05T01:31:34.239Z,988.17
2019-03-05T01:32:36.886Z,988.30
2019-03-05T01:33:34.224Z,988.21
2019-03-05T01:34:34.181Z,988.30
2019-03-05T01:35:34.179Z,988.27
2019-03-05T01:36:34.159Z,988.20
2019-03-05T01:37:34.155Z,988.23
2019-03-05T01:38:34.141Z,988.30
2019-03-05T01:39:34.153Z,988.18
2019-03-05T01:40:34.119Z,988.21
2019-03-05T01:41:34.107Z,988.28
2019-03-05T01:42:34.101Z,988.24
2019-03-05T01:43:34.081Z,988.19
2019-03-05T01:44:34.109Z,988.20
2019-03-05T01:45:34.065Z,988.24
2019-03-05T01:46:34.078Z,988.31
2019-03-05T01:47:34.037Z,988.25
2019-03-05T01:48:34.029Z,988.35
2019-03-05T01:49:34.027Z,988.39
2019-03-05T01:50:34.007Z,988.24
2019-03-05T01:51:33.997Z,988.32
2019-03-05T01:52:33.997Z,988.46
2019-03-05T01:53:33.972Z,988.33
2019-03-05T01:54:33.995Z,988.26
2019-03-05T01:55:33.951Z,988.26
2019-03-05T01:56:33.945Z,988.23
2019-03-05T01:57:33.927Z,988.25
2019-03-05T01:58:33.924Z,988.29
2019-03-05T01:59:33.906Z,988.40
2019-03-05T02:00:33.933Z,988.31
2019-03-05T02:01:33.885Z,988.28
2019-03-05T02:02:33.875Z,988.29
2019-03-05T02:03:33.869Z,988.23
2019-03-05T02:04:33.851Z,988.24
2019-03-05T02:05:33.843Z,988.23
2019-03-05T02:06:33.863Z,988.22
2019-03-05T02:07:33.824Z,988.22
2019-03-05T02:08:33.823Z,988.30
2019-03-05T02:09:33.799Z,988.24
2019-03-05T02:10:33.793Z,988.18
2019-03-05T02:11:33.779Z,988.19
2019-03-05T02:12:33.843Z,988.25
2019-03-05T02:13:33.760Z,988.23
2019-03-05T02:14:33.758Z,988.25
2019-03-05T02:15:33.741Z,988.21
2019-03-05T02:16:33.762Z,988.25
2019-03-05T02:17:33.711Z,988.15
2019-03-05T02:18:33.712Z,988.16
2019-03-05T02:19:33.695Z,988.14
2019-03-05T02:20:33.679Z,988.14
2019-03-05T02:21:33.671Z,988.19
2019-03-05T02:22:33.687Z,988.10
2019-03-05T02:23:33.651Z,988.24
2019-03-05T02:24:33.646Z,988.18
2019-03-05T02:25:34.376Z,988.19
2019-03-05T02:26:33.623Z,988.16
2019-03-05T02:27:33.607Z,988.20
2019-03-05T02:28:33.630Z,988.14
2019-03-05T02:29:33.585Z,988.22
2019-03-05T02:30:33.575Z,988.19
2019-03-05T02:31:33.593Z,988.14
2019-03-05T02:32:34.378Z,988.18
2019-03-05T02:33:33.541Z,988.12
2019-03-05T02:34:33.535Z,988.16
2019-03-05T02:35:33.527Z,988.15
2019-03-05T02:36:33.515Z,988.14
2019-03-05T02:37:33.537Z,988.21
2019-03-05T02:38:34.367Z,988.16
2019-03-05T02:39:33.482Z,988.17
2019-03-05T02:40:33.470Z,988.21
2019-03-05T02:41:33.458Z,988.24
2019-03-05T02:42:33.442Z,988.19
2019-03-05T02:43:33.463Z,988.21
2019-03-05T02:44:33.447Z,988.12
2019-03-05T02:45:33.415Z,988.19
2019-03-05T02:46:33.405Z,988.38
2019-03-05T02:47:33.389Z,988.22
2019-03-05T02:48:33.870Z,988.24
2019-03-05T02:49:33.397Z,988.26
2019-03-05T02:50:33.361Z,988.29
2019-03-05T02:51:33.345Z,988.24
2019-03-05T02:52:33.337Z,988.12
2019-03-05T02:53:33.323Z,988.38
2019-03-05T02:54:33.314Z,988.21
2019-03-05T02:55:33.332Z,988.19
2019-03-05T02:56:33.298Z,988.19
2019-03-05T02:57:33.288Z,988.28
2019-03-05T02:58:33.861Z,988.29
2019-03-05T02:59:33.254Z,988.30
2019-03-05T03:00:33.246Z,988.37
2019-03-05T03:01:35.859Z,988.26
2019-03-05T03:02:33.227Z,988.27
2019-03-05T03:03:33.219Z,988.31
2019-03-05T03:04:33.199Z,988.36
2019-03-05T03:05:33.315Z,988.38
2019-03-05T03:06:33.180Z,988.35
2019-03-05T03:07:33.204Z,988.45
2019-03-05T03:08:33.158Z,988.39
2019-03-05T03:09:33.147Z,988.38
2019-03-05T03:10:33.143Z,988.43
2019-03-05T03:11:33.129Z,988.39
2019-03-05T03:12:33.111Z,988.42
2019-03-05T03:13:33.127Z,988.38
2019-03-05T03:14:33.100Z,988.46
2019-03-05T03:15:33.091Z,988.44
2019-03-05T03:16:33.074Z,988.52
2019-03-05T03:17:33.064Z,988.46
2019-03-05T03:18:33.075Z,988.52
2019-03-05T03:19:33.037Z,988.47
2019-03-05T03:20:33.029Z,988.51
2019-03-05T03:21:33.011Z,988.49
2019-03-05T03:22:33.005Z,988.56
2019-03-05T03:23:33.026Z,988.54
2019-03-05T03:24:32.984Z,988.59
2019-03-05T03:25:32.972Z,988.61
2019-03-05T03:26:32.973Z,988.63
2019-03-05T03:27:32.947Z,988.62
2019-03-05T03:28:33.858Z,988.69
2019-03-05T03:29:32.961Z,988.67
2019-03-05T03:30:32.977Z,988.63
2019-03-05T03:31:32.912Z,988.64
2019-03-05T03:32:32.902Z,988.74
2019-03-05T03:33:32.890Z,988.60
2019-03-05T03:34:32.874Z,988.62
2019-03-05T03:35:32.917Z,988.73
2019-03-05T03:36:35.359Z,988.50
2019-03-05T03:37:32.843Z,988.60
2019-03-05T03:38:32.863Z,988.72
2019-03-05T03:39:32.822Z,988.65
2019-03-05T03:40:35.345Z,988.64
2019-03-05T03:41:32.794Z,988.56
2019-03-05T03:42:32.787Z,988.62
2019-03-05T03:43:32.772Z,988.65
2019-03-05T03:44:35.891Z,988.60
2019-03-05T03:45:32.786Z,988.56
2019-03-05T03:46:32.742Z,988.55
2019-03-05T03:47:32.735Z,988.56
2019-03-05T03:48:32.727Z,988.52
2019-03-05T03:49:32.708Z,988.57
2019-03-05T03:50:32.703Z,988.53
2019-03-05T03:51:32.731Z,988.57
2019-03-05T03:52:32.680Z,988.61
2019-03-05T03:53:32.729Z,988.47
2019-03-05T03:54:32.672Z,988.55
2019-03-05T03:55:32.645Z,988.46
2019-03-05T03:56:33.352Z,988.55
2019-03-05T03:57:32.623Z,988.49
2019-03-05T03:58:32.643Z,988.58
2019-03-05T03:59:32.598Z,988.54
2019-03-05T04:00:32.600Z,988.60
2019-03-05T04:01:32.580Z,988.58
2019-03-05T04:02:32.572Z,988.55
2019-03-05T04:03:32.595Z,988.52
2019-03-05T04:04:32.552Z,988.59
2019-03-05T04:05:32.535Z,988.50
2019-03-05T04:06:32.526Z,988.55
2019-03-05T04:07:35.347Z,988.42
2019-03-05T04:08:32.514Z,988.42
2019-03-05T04:09:32.522Z,988.57
2019-03-05T04:10:32.477Z,988.69
2019-03-05T04:11:32.472Z,988.57
2019-03-05T04:12:32.457Z,988.73
2019-03-05T04:13:32.446Z,988.54
2019-03-05T04:14:32.467Z,988.65
2019-03-05T04:15:32.456Z,988.59
2019-03-05T04:16:35.341Z,988.67
2019-03-05T04:17:32.405Z,988.58
2019-03-05T04:19:31.388Z,988.62
2019-03-05T04:20:32.377Z,988.62
2019-03-05T04:21:32.357Z,988.56
2019-03-05T04:22:32.358Z,988.62
2019-03-05T04:23:32.341Z,988.62
2019-03-05T04:24:32.364Z,988.67
2019-03-05T04:25:32.317Z,988.69
2019-03-05T04:26:32.863Z,988.73
2019-03-05T04:27:32.290Z,988.79
2019-03-05T04:28:32.296Z,988.84
2019-03-05T04:29:32.274Z,988.75
2019-03-05T04:30:32.301Z,988.76
2019-03-05T04:31:32.251Z,988.86
2019-03-05T04:32:32.249Z,988.94
2019-03-05T04:33:32.883Z,988.79
2019-03-05T04:34:32.227Z,988.87
2019-03-05T04:35:32.210Z,988.96
2019-03-05T04:36:32.207Z,988.93
2019-03-05T04:37:32.221Z,988.85
2019-03-05T04:38:32.174Z,988.86
2019-03-05T04:39:32.170Z,988.80
2019-03-05T04:40:32.153Z,988.88
2019-03-05T04:41:32.185Z,988.93
2019-03-05T04:42:32.132Z,988.88
2019-03-05T04:43:32.150Z,989.00
2019-03-05T04:44:32.115Z,988.99
2019-03-05T04:45:32.100Z,988.95
2019-03-05T04:46:32.120Z,988.89
2019-03-05T04:47:32.081Z,988.91
2019-03-05T04:48:32.074Z,988.93
2019-03-05T04:49:32.059Z,988.86
2019-03-05T04:50:32.050Z,988.92
2019-03-05T04:51:32.063Z,988.91
2019-03-05T04:52:32.024Z,988.95
2019-03-05T04:53:32.024Z,988.96
2019-03-05T04:54:34.837Z,988.98
2019-03-05T04:55:31.993Z,988.97
2019-03-05T04:56:31.979Z,988.90
2019-03-05T04:57:32.072Z,988.86
2019-03-05T04:58:31.960Z,988.80
2019-03-05T04:59:31.950Z,988.85
2019-03-05T05:00:31.939Z,988.87
2019-03-05T05:01:31.929Z,988.84
2019-03-05T05:02:31.916Z,988.87
2019-03-05T05:03:31.931Z,988.99
2019-03-05T05:04:31.899Z,989.00
2019-03-05T05:05:31.878Z,988.87
2019-03-05T05:06:31.898Z,988.90
2019-03-05T05:07:31.864Z,988.93
2019-03-05T05:08:31.864Z,988.95
2019-03-05T05:09:31.838Z,988.99
2019-03-05T05:10:31.836Z,988.95
2019-03-05T05:11:31.814Z,989.01
2019-03-05T05:12:31.842Z,988.89
2019-03-05T05:13:31.816Z,989.01
2019-03-05T05:14:32.323Z,989.03
2019-03-05T05:15:31.769Z,989.09
2019-03-05T05:16:31.762Z,989.00
2019-03-05T05:17:32.326Z,989.05
2019-03-05T05:18:31.770Z,989.09
2019-03-05T05:19:31.732Z,989.10
2019-03-05T05:20:31.718Z,989.02
2019-03-05T05:21:31.732Z,989.03
2019-03-05T05:22:31.698Z,989.03
2019-03-05T05:23:31.682Z,988.97
2019-03-05T05:24:32.316Z,989.04
2019-03-05T05:25:31.664Z,988.99
2019-03-05T05:26:31.648Z,989.02
2019-03-05T05:28:30.629Z,989.03
2019-03-05T05:29:31.616Z,989.24
2019-03-05T05:30:31.603Z,988.96
2019-03-05T05:31:31.594Z,989.04
2019-03-05T05:32:31.604Z,988.97
2019-03-05T05:33:33.357Z,989.02
2019-03-05T05:34:31.586Z,988.99
2019-03-05T05:35:31.550Z,989.04
2019-03-05T05:36:34.318Z,989.09
2019-03-05T05:37:31.526Z,989.00
2019-03-05T05:38:31.523Z,988.97
2019-03-05T05:39:31.506Z,988.93
2019-03-05T05:40:31.529Z,989.00
2019-03-05T05:41:31.499Z,989.08
2019-03-05T05:42:31.476Z,989.00
2019-03-05T05:43:31.466Z,989.03
2019-03-05T05:44:31.454Z,989.04
2019-03-05T05:45:32.311Z,989.19
2019-03-05T05:46:31.464Z,989.18
2019-03-05T05:47:31.418Z,989.16
2019-03-05T05:48:31.411Z,989.17
2019-03-05T05:49:31.400Z,989.10
2019-03-05T05:50:31.388Z,989.15
2019-03-05T05:51:31.377Z,989.18
2019-03-05T05:52:31.391Z,989.17
2019-03-05T05:53:31.356Z,989.18
2019-03-05T05:54:31.364Z,989.29
2019-03-05T05:55:31.331Z,989.27
2019-03-05T05:56:31.318Z,989.28
2019-03-05T05:57:31.314Z,989.31
2019-03-05T05:58:31.300Z,989.31
2019-03-05T05:59:31.314Z,989.25
2019-03-05T06:00:31.283Z,989.31
2019-03-05T06:01:31.270Z,989.34
2019-03-05T06:02:31.261Z,989.25
2019-03-05T06:03:31.247Z,989.38
2019-03-05T06:04:31.368Z,989.32
2019-03-05T06:05:31.220Z,989.34
2019-03-05T06:06:31.224Z,989.44
2019-03-05T06:07:31.208Z,989.38
2019-03-05T06:08:31.195Z,989.42
2019-03-05T06:09:31.180Z,989.44
2019-03-05T06:10:31.200Z,989.62
2019-03-05T06:11:31.158Z,989.45
2019-03-05T06:12:31.144Z,989.46
2019-03-05T06:13:31.144Z,989.48
2019-03-05T06:14:31.135Z,989.40
2019-03-05T06:15:31.118Z,989.48
2019-03-05T06:16:31.132Z,989.36
2019-03-05T06:17:31.090Z,989.48
2019-03-05T06:18:31.080Z,989.46
2019-03-05T06:19:31.071Z,989.66
2019-03-05T06:20:31.064Z,989.46
2019-03-05T06:21:31.048Z,989.56
2019-03-05T06:22:31.078Z,989.52
2019-03-05T06:23:31.032Z,989.54
2019-03-05T06:24:31.026Z,989.53
2019-03-05T06:25:31.025Z,989.62
2019-03-05T06:26:30.992Z,989.64
2019-03-05T06:27:33.800Z,989.62
2019-03-05T06:28:30.999Z,989.56
2019-03-05T06:29:33.803Z,989.57
2019-03-05T06:30:30.948Z,989.61
2019-03-05T06:31:30.936Z,989.57
2019-03-05T06:32:30.926Z,989.59
2019-03-05T06:33:30.932Z,989.59
2019-03-05T06:34:30.934Z,989.55
2019-03-05T06:35:30.906Z,989.62
2019-03-05T06:36:30.888Z,989.71
2019-03-05T06:37:32.987Z,989.50
2019-03-05T06:38:30.860Z,989.51
2019-03-05T06:39:30.854Z,989.52
2019-03-05T06:40:31.335Z,989.56
2019-03-05T06:41:30.832Z,989.70
2019-03-05T06:42:30.820Z,989.55
2019-03-05T06:44:29.792Z,989.59
2019-03-05T06:45:30.824Z,989.55
2019-03-05T06:46:30.774Z,989.43
2019-03-05T06:47:30.771Z,989.50
2019-03-05T06:48:30.764Z,989.47
2019-03-05T06:49:30.766Z,989.50
2019-03-05T06:50:33.293Z,989.55
2019-03-05T06:51:30.727Z,989.44
2019-03-05T06:52:30.738Z,989.50
2019-03-05T06:53:30.696Z,989.44
2019-03-05T06:54:30.693Z,989.39
2019-03-05T06:55:30.683Z,989.51
2019-03-05T06:56:30.674Z,989.42
2019-03-05T06:57:30.734Z,989.43
2019-03-05T06:58:33.710Z,989.56
2019-03-05T06:59:30.665Z,989.53
2019-03-05T07:00:30.622Z,989.45
2019-03-05T07:01:30.614Z,989.48
2019-03-05T07:02:30.605Z,989.48
2019-03-05T07:03:30.592Z,989.33
2019-03-05T07:04:30.583Z,989.45
2019-03-05T07:05:30.610Z,989.53
2019-03-05T07:06:30.564Z,989.41
2019-03-05T07:07:30.572Z,989.46
2019-03-05T07:08:30.539Z,989.46
2019-03-05T07:09:30.538Z,989.43
2019-03-05T07:10:30.510Z,989.51
2019-03-05T07:11:30.513Z,989.56
2019-03-05T07:12:30.521Z,989.56
2019-03-05T07:13:30.480Z,989.55
2019-03-05T07:14:30.479Z,989.54
2019-03-05T07:15:30.487Z,989.54
2019-03-05T07:16:30.452Z,989.60
2019-03-05T07:17:30.468Z,989.63
2019-03-05T07:18:30.426Z,989.68
2019-03-05T07:19:30.413Z,989.66
2019-03-05T07:20:30.405Z,989.65
2019-03-05T07:21:30.396Z,989.61
2019-03-05T07:22:30.388Z,989.59
2019-03-05T07:23:30.395Z,989.63
2019-03-05T07:24:30.367Z,989.68
2019-03-05T07:25:30.348Z,989.56
2019-03-05T07:26:30.345Z,989.78
2019-03-05T07:27:33.279Z,989.71
2019-03-05T07:28:30.321Z,989.84
2019-03-05T07:29:30.334Z,989.68
2019-03-05T07:30:30.296Z,989.61
2019-03-05T07:31:30.296Z,989.70
2019-03-05T07:32:30.288Z,989.74
2019-03-05T07:33:30.266Z,989.78
2019-03-05T07:34:30.256Z,989.77
2019-03-05T07:35:30.272Z,989.89
2019-03-05T07:36:30.243Z,990.01
2019-03-05T07:37:30.225Z,989.86
2019-03-05T07:38:30.210Z,989.97
2019-03-05T07:39:30.197Z,989.95
2019-03-05T07:40:30.213Z,989.85
2019-03-05T07:41:30.179Z,990.04
2019-03-05T07:42:30.167Z,989.99
2019-03-05T07:43:36.524Z,990.05
2019-03-05T07:44:30.145Z,989.93
2019-03-05T07:45:30.133Z,990.02
2019-03-05T07:46:30.148Z,990.00
2019-03-05T07:47:30.124Z,990.05
2019-03-05T07:48:30.104Z,990.07
2019-03-05T07:49:30.117Z,990.11
2019-03-05T07:50:30.120Z,990.08
2019-03-05T07:51:30.068Z,989.99
2019-03-05T07:52:30.054Z,990.22
2019-03-05T07:53:30.047Z,990.03
2019-03-05T07:54:30.036Z,990.05
2019-03-05T07:55:30.053Z,990.10
2019-03-05T07:56:30.018Z,990.10
2019-03-05T07:57:30.000Z,990.16
2019-03-05T07:58:29.988Z,990.13
2019-03-05T07:59:30.010Z,990.21
2019-03-05T08:00:29.972Z,990.26
2019-03-05T08:01:30.243Z,990.17
2019-03-05T08:02:29.948Z,990.33
2019-03-05T08:03:29.937Z,990.32
2019-03-05T08:04:29.925Z,990.32
2019-03-05T08:05:30.172Z,990.29
2019-03-05T08:06:29.918Z,990.39
2019-03-05T08:07:29.954Z,990.25
2019-03-05T08:08:32.780Z,990.32
2019-03-05T08:09:29.871Z,990.36
2019-03-05T08:10:29.891Z,990.41
2019-03-05T08:11:31.848Z,990.42
2019-03-05T08:12:29.837Z,990.22
2019-03-05T08:13:29.824Z,990.34
2019-03-05T08:14:29.821Z,990.48
2019-03-05T08:15:32.779Z,990.34
2019-03-05T08:16:29.821Z,990.58
2019-03-05T08:17:29.782Z,990.58
2019-03-05T08:18:29.776Z,990.57
2019-03-05T08:19:29.788Z,990.62
2019-03-05T08:20:29.751Z,990.64
2019-03-05T08:21:29.739Z,990.57
2019-03-05T08:22:29.768Z,990.69
2019-03-05T08:23:29.766Z,990.75
2019-03-05T08:24:29.747Z,990.89
2019-03-05T08:25:29.744Z,990.71
2019-03-05T08:26:29.689Z,990.64
2019-03-05T08:27:29.674Z,990.76
2019-03-05T08:28:29.657Z,990.80
2019-03-05T08:29:29.679Z,990.88
2019-03-05T08:30:29.637Z,990.89
2019-03-05T08:31:32.261Z,990.88
2019-03-05T08:32:29.616Z,990.85
2019-03-05T08:33:29.602Z,990.84
2019-03-05T08:34:29.628Z,990.93
2019-03-05T08:35:29.622Z,990.85
2019-03-05T08:36:29.570Z,990.98
2019-03-05T08:37:29.553Z,990.88
2019-03-05T08:38:29.551Z,991.00
2019-03-05T08:39:29.581Z,991.03
2019-03-05T08:40:29.534Z,990.97
2019-03-05T08:41:29.519Z,990.97
2019-03-05T08:42:29.509Z,991.03
2019-03-05T08:43:29.490Z,991.04
2019-03-05T08:44:29.494Z,991.08
2019-03-05T08:45:29.861Z,991.07
2019-03-05T08:46:29.485Z,990.96
2019-03-05T08:47:29.448Z,990.94
2019-03-05T08:48:29.437Z,991.21
2019-03-05T08:49:31.296Z,991.12
2019-03-05T08:50:29.413Z,991.17
